Canovanas, PR

9:16 AM AST on August 30, 2016 (GMT -0400)
Ciudad Jardin | | Change Station

Elev 10 ft 18.37 °N, 65.93 °W | Updated 9 seconds ago

Scattered Clouds
Scattered Clouds
87.6 °F
Feels Like 101 °F
N
0.0
Wind Variable Wind from ESE
Gusts 7.0 mph

Today
High -- | Low -- °F
--% Chance of Precip.
Yesterday
High -- | Low -- °F
Precip. -- in
Pressure 30.04 in
Visibility 9.0 miles
Clouds Few 2400 ft
Scattered Clouds 9000 ft
Heat Index 101 °F
Dew Point 78 °F
Humidity 73%
Rainfall 0.00 in
Snow Depth Not available.
6:08 AM 6:39 PM
Waning Crescent, 4% visible
METAR TJSJ 301256Z 10009KT 9SM FEW024 SCT090 30/25 A3005 RMK AO2 SLP173 HZ ALQDS T03000250
Pressure 30.04 in
Visibility 9.0 miles
Clouds Few 2400 ft
Scattered Clouds 9000 ft
Heat Index 101 °F
Dew Point 78 °F
Humidity 73%
Rainfall 0.00 in
Snow Depth Not available.
6:08 AM 6:39 PM
Waning Crescent, 4% visible
METAR TJSJ 301256Z 10009KT 9SM FEW024 SCT090 30/25 A3005 RMK AO2 SLP173 HZ ALQDS T03000250

10-Day Weather Forecast

Almanac

Astronomy

Aug. 30, 2016 Rise Set
Actual Time
Civil Twilight
Nautical Twilight
Astronomical Twilight
Moon
Length of Visible Light
Length of Day
Tomorrow will be .
, % of the Moon is Illuminated

Today's Extremes

State Highs State Lows

Community

WunderPhotos

Upload Photos

1,935,831 photos uploaded!

WunderBlog® & News

Nearby

Air Quality

  Air Quality AQ Index Pollutant
Not available.

Snow Depth

Station Depth Elevation

Earthquake Activity

City Distance Mag. Time & Date
Minimum magnitude displayed is 2.5.

Coastal Water Temperatures

Place Temperature

Stations

Nearby Weather Stations

Station Location Temp. Windchill Dew Point Humidity Wind Precip. Elev Updated Type
                   

Watches & Warnings

There are currently no watches in effect.